Terminal Aerodrome Forecast
Issued by NWS

Current Version | Previous Version | Graphics & Text | Print | Product List | Glossary On
Versions: 1 2 3 4 5 6 7 8 9 10 11 12 13 14 15 16 17 18 19 20 21 22 23 24 25 26
000
FTUS41 KPBZ 050300 AAB
TAFHLG
TAF AMD
KHLG 050311Z 0503/0524 30008G16KT 2SM -SN SCT004 OVC008
      TEMPO 0503/0506 1/2SM -SN FG OVC004
     FM050900 31010KT 6SM -SN OVC015
     FM051700 34008KT P6SM BKN025
     FM052300 32005KT P6SM SKC=

USA.gov is the U.S. government's official web portal to all federal, state and local government web resources and services.